Terminal Aerodrome Forecast
Issued by NWS

Home | Current Version | Previous Version | Graphics & Text | Print | Product List | Glossary On
Versions: 1 2 3 4 5 6 7 8 9 10 11 12
000
FTUS43 KMPX 101100
TAFAXN
TAF
KAXN 101120Z 1012/1112 13005KT P6SM SKC
     FM101500 17010KT P6SM FEW040
     FM101800 18014G18KT P6SM SCT045 BKN080
     FM110000 16010KT P6SM VCSH BKN050 OVC080 PROB30 1102/1106 5SM
      TSRA OVC035CB
     FM110800 18010KT P6SM SCT040 BKN080=

USA.gov is the U.S. government's official web portal to all federal, state and local government web resources and services.